createdAt,value
2022-10-28T00:01:04.661Z,18.20
2022-10-28T00:03:33.504Z,18.20
2022-10-28T00:06:05.402Z,18.20
2022-10-28T00:08:33.856Z,18.30
2022-10-28T00:11:06.243Z,18.30
2022-10-28T00:13:34.959Z,18.30
2022-10-28T00:16:09.319Z,18.30
2022-10-28T00:18:37.714Z,18.30
2022-10-28T00:21:07.341Z,18.40
2022-10-28T00:23:35.990Z,18.40
2022-10-28T00:26:08.066Z,18.40
2022-10-28T00:28:36.746Z,18.40
2022-10-28T00:31:06.594Z,18.40
2022-10-28T00:33:36.616Z,18.50
2022-10-28T00:36:11.933Z,18.40
2022-10-28T00:38:40.492Z,18.40
2022-10-28T00:41:09.843Z,18.50
2022-10-28T00:43:39.000Z,18.40
2022-10-28T00:46:11.726Z,18.40
2022-10-28T00:48:41.914Z,18.30
2022-10-28T00:51:10.737Z,18.30
2022-10-28T00:53:39.930Z,18.40
2022-10-28T00:56:08.744Z,18.40
2022-10-28T00:58:37.245Z,18.40
2022-10-28T01:01:05.976Z,18.40
2022-10-28T01:03:34.464Z,18.40
2022-10-28T01:06:04.726Z,18.40
2022-10-28T01:08:33.347Z,18.40
2022-10-28T01:11:17.747Z,18.50
2022-10-28T01:13:53.307Z,18.50
2022-10-28T01:16:26.673Z,18.40
2022-10-28T01:19:00.949Z,18.40
2022-10-28T01:21:44.632Z,18.30
2022-10-28T01:24:18.999Z,18.30
2022-10-28T01:27:02.123Z,18.30
2022-10-28T01:29:54.255Z,18.30
2022-10-28T01:32:27.828Z,18.20
2022-10-28T01:34:59.569Z,18.20
2022-10-28T01:37:33.160Z,18.30
2022-10-28T01:40:04.937Z,18.30
2022-10-28T01:42:35.054Z,18.30
2022-10-28T01:45:08.725Z,18.30
2022-10-28T01:47:40.314Z,18.30
2022-10-28T01:50:10.320Z,18.40
2022-10-28T01:52:40.238Z,18.40
2022-10-28T01:55:11.647Z,18.40
2022-10-28T01:57:41.857Z,18.40
2022-10-28T02:00:10.910Z,18.40
2022-10-28T02:02:41.096Z,18.40
2022-10-28T02:05:24.272Z,18.40
2022-10-28T02:07:55.295Z,18.40
2022-10-28T02:10:27.789Z,18.40
2022-10-28T02:12:57.571Z,18.40
2022-10-28T02:15:34.051Z,18.40
2022-10-28T02:18:07.934Z,18.40
2022-10-28T02:20:39.169Z,18.40
2022-10-28T02:23:13.851Z,18.40
2022-10-28T02:25:44.719Z,18.40
2022-10-28T02:28:15.556Z,18.40
2022-10-28T02:30:46.861Z,18.50
2022-10-28T02:33:19.517Z,18.40
2022-10-28T02:35:50.828Z,18.40
2022-10-28T02:38:20.848Z,18.40
2022-10-28T02:43:24.877Z,18.50
2022-10-28T02:45:56.461Z,18.40
2022-10-28T02:48:28.506Z,18.40
2022-10-28T02:50:59.313Z,18.40
2022-10-28T02:53:30.099Z,18.40
2022-10-28T02:56:00.682Z,18.50
2022-10-28T02:58:29.157Z,18.50
2022-10-28T03:00:57.613Z,18.50
2022-10-28T03:03:27.491Z,18.40
2022-10-28T03:05:55.874Z,18.50
2022-10-28T03:08:25.365Z,18.40
2022-10-28T03:10:53.720Z,18.50
2022-10-28T03:13:22.186Z,18.40
2022-10-28T03:15:50.567Z,18.50
2022-10-28T03:18:19.041Z,18.40
2022-10-28T03:20:48.831Z,18.50
2022-10-28T03:23:17.245Z,18.50
2022-10-28T03:25:45.647Z,18.60
2022-10-28T03:28:13.980Z,18.50
2022-10-28T03:30:42.285Z,18.50
2022-10-28T03:33:10.716Z,18.50
2022-10-28T03:35:39.123Z,18.50
2022-10-28T03:38:08.984Z,18.50
2022-10-28T03:40:37.466Z,18.50
2022-10-28T03:43:05.863Z,18.40
2022-10-28T03:45:34.217Z,18.50
2022-10-28T03:48:02.653Z,18.30
2022-10-28T03:50:31.086Z,18.30
2022-10-28T03:52:59.532Z,18.30
2022-10-28T03:55:29.327Z,18.30
2022-10-28T03:57:57.787Z,18.40
2022-10-28T04:00:26.156Z,18.30
2022-10-28T04:02:55.048Z,18.30
2022-10-28T04:05:23.821Z,18.30
2022-10-28T04:07:54.156Z,18.40
2022-10-28T04:10:22.568Z,18.40
2022-10-28T04:12:52.607Z,18.40
2022-10-28T04:15:21.465Z,18.40
2022-10-28T04:17:49.803Z,18.30
2022-10-28T04:20:18.175Z,18.30
2022-10-28T04:22:46.600Z,18.30
2022-10-28T04:27:48.908Z,18.30
2022-10-28T04:30:18.934Z,18.20
2022-10-28T04:32:47.306Z,18.20
2022-10-28T04:35:15.685Z,18.30
2022-10-28T04:37:44.173Z,18.30
2022-10-28T04:40:13.001Z,18.10
2022-10-28T04:42:41.486Z,18.10
2022-10-28T04:45:10.320Z,18.00
2022-10-28T04:47:40.059Z,18.00
2022-10-28T04:50:08.928Z,17.90
2022-10-28T04:52:37.394Z,17.80
2022-10-28T04:55:06.087Z,17.80
2022-10-28T04:57:34.410Z,17.80
2022-10-28T05:00:03.269Z,17.80
2022-10-28T05:02:31.724Z,17.90
2022-10-28T05:05:03.665Z,17.90
2022-10-28T05:07:32.141Z,17.90
2022-10-28T05:10:00.436Z,17.90
2022-10-28T05:12:28.886Z,17.90
2022-10-28T05:14:57.254Z,17.90
2022-10-28T05:17:25.758Z,17.90
2022-10-28T05:19:54.196Z,17.90
2022-10-28T05:22:23.917Z,17.90
2022-10-28T05:24:52.280Z,17.90
2022-10-28T05:27:20.723Z,17.90
2022-10-28T05:29:49.078Z,17.90
2022-10-28T05:32:17.486Z,18.00
2022-10-28T05:34:45.930Z,17.90
2022-10-28T05:37:14.282Z,17.90
2022-10-28T05:39:44.068Z,18.00
2022-10-28T05:42:12.503Z,18.00
2022-10-28T05:44:40.934Z,17.90
2022-10-28T05:47:09.326Z,17.90
2022-10-28T05:49:37.784Z,17.90
2022-10-28T05:52:06.529Z,17.90
2022-10-28T05:54:34.901Z,17.90
2022-10-28T05:57:04.720Z,17.90
2022-10-28T05:59:33.055Z,18.00
2022-10-28T06:02:01.582Z,18.00
2022-10-28T06:04:31.115Z,18.00
2022-10-28T06:06:59.529Z,18.00
2022-10-28T06:09:28.459Z,18.00
2022-10-28T06:11:55.258Z,17.90
2022-10-28T06:14:25.008Z,17.70
2022-10-28T06:16:53.385Z,17.70
2022-10-28T06:19:21.789Z,17.70
2022-10-28T06:21:50.292Z,17.60
2022-10-28T06:24:18.655Z,17.50
2022-10-28T06:26:47.472Z,17.60
2022-10-28T06:29:15.912Z,17.60
2022-10-28T06:31:45.876Z,17.50
2022-10-28T06:34:14.184Z,17.50
2022-10-28T06:36:42.618Z,17.50
2022-10-28T06:39:10.992Z,17.60
2022-10-28T06:41:39.345Z,17.70
2022-10-28T06:44:07.698Z,17.80
2022-10-28T06:46:37.524Z,17.80
2022-10-28T06:49:09.250Z,17.90
2022-10-28T06:51:37.837Z,17.90
2022-10-28T06:54:06.243Z,17.90
2022-10-28T06:56:34.710Z,18.00
2022-10-28T06:59:03.041Z,18.10
2022-10-28T07:01:31.437Z,18.10
2022-10-28T07:03:59.861Z,18.20
2022-10-28T07:06:29.658Z,18.20
2022-10-28T07:08:58.035Z,18.30
2022-10-28T07:11:26.430Z,18.30
2022-10-28T07:13:54.844Z,18.40
2022-10-28T07:16:23.244Z,18.40
2022-10-28T07:18:51.707Z,18.50
2022-10-28T07:21:21.852Z,18.40
2022-10-28T07:23:51.635Z,18.30
2022-10-28T07:26:19.995Z,18.40
2022-10-28T07:28:48.418Z,18.30
2022-10-28T07:31:17.044Z,18.30
2022-10-28T07:33:45.384Z,18.30
2022-10-28T07:36:13.738Z,18.40
2022-10-28T07:38:42.124Z,18.40
2022-10-28T07:41:12.188Z,18.50
2022-10-28T07:43:40.672Z,18.50
2022-10-28T07:46:09.694Z,18.50
2022-10-28T07:48:38.862Z,18.60
2022-10-28T07:51:08.023Z,18.70
2022-10-28T07:53:36.442Z,18.70
2022-10-28T07:56:06.667Z,18.80
2022-10-28T07:58:36.938Z,18.80
2022-10-28T08:01:05.847Z,18.90
2022-10-28T08:03:38.683Z,19.00
2022-10-28T08:06:08.598Z,19.00
2022-10-28T08:08:37.304Z,19.10
2022-10-28T08:11:12.168Z,19.20
2022-10-28T08:13:42.171Z,19.30
2022-10-28T08:16:10.681Z,19.50
2022-10-28T08:18:39.739Z,19.60
2022-10-28T08:21:08.882Z,19.80
2022-10-28T08:23:38.339Z,19.90
2022-10-28T08:26:07.024Z,20.10
2022-10-28T08:28:35.363Z,20.20
2022-10-28T08:31:09.589Z,20.30
2022-10-28T08:33:39.064Z,20.30
2022-10-28T08:36:07.981Z,20.30
2022-10-28T08:38:36.370Z,20.30
2022-10-28T08:41:09.694Z,20.40
2022-10-28T08:43:56.647Z,20.50
2022-10-28T08:46:32.429Z,20.60
2022-10-28T08:49:02.344Z,20.70
2022-10-28T08:51:36.711Z,20.70
2022-10-28T08:54:07.874Z,20.70
2022-10-28T08:56:38.328Z,20.80
2022-10-28T08:59:08.640Z,20.80
2022-10-28T09:01:42.785Z,20.80
2022-10-28T09:04:16.696Z,20.80
2022-10-28T09:06:45.098Z,20.90
2022-10-28T09:09:18.869Z,21.00
2022-10-28T09:11:55.035Z,20.90
2022-10-28T09:14:28.480Z,20.90
2022-10-28T09:17:05.207Z,20.90
2022-10-28T09:19:39.340Z,20.90
2022-10-28T09:22:20.770Z,21.10
2022-10-28T09:24:51.599Z,20.90
2022-10-28T09:27:24.253Z,20.90
2022-10-28T09:29:56.136Z,20.80
2022-10-28T09:32:28.203Z,20.70
2022-10-28T09:34:59.870Z,20.80
2022-10-28T09:37:30.648Z,20.90
2022-10-28T09:40:01.789Z,21.00
2022-10-28T09:42:31.795Z,21.00
2022-10-28T09:45:02.690Z,21.10
2022-10-28T09:47:34.446Z,21.10
2022-10-28T09:50:04.634Z,21.00
2022-10-28T09:52:35.864Z,21.00
2022-10-28T09:55:07.400Z,21.00
2022-10-28T09:57:35.871Z,21.00
2022-10-28T10:00:04.953Z,20.90
2022-10-28T10:02:36.185Z,20.80
2022-10-28T10:05:05.035Z,20.70
2022-10-28T10:07:36.509Z,20.70
2022-10-28T10:10:07.119Z,20.90
2022-10-28T10:12:35.607Z,21.00
2022-10-28T10:15:06.513Z,21.00
2022-10-28T10:17:40.972Z,21.10
2022-10-28T10:20:09.836Z,21.10
2022-10-28T10:22:39.155Z,21.00
2022-10-28T10:25:23.615Z,21.10
2022-10-28T10:27:52.894Z,21.10
2022-10-28T10:30:23.468Z,21.10
2022-10-28T10:32:53.728Z,21.00
2022-10-28T10:35:24.245Z,21.10
2022-10-28T10:37:52.924Z,21.10
2022-10-28T10:40:24.206Z,21.00
2022-10-28T10:43:10.054Z,20.90
2022-10-28T10:45:41.668Z,20.90
2022-10-28T10:48:15.393Z,20.90
2022-10-28T10:50:45.111Z,20.90
2022-10-28T10:53:24.640Z,21.10
2022-10-28T10:55:55.119Z,21.10
2022-10-28T10:58:25.018Z,21.00
2022-10-28T11:00:54.919Z,21.10
2022-10-28T11:03:26.623Z,21.10
2022-10-28T11:06:18.286Z,21.00
2022-10-28T11:08:45.252Z,20.80
2022-10-28T11:11:15.280Z,20.80
2022-10-28T11:13:46.163Z,20.90
2022-10-28T11:16:22.437Z,20.80
2022-10-28T11:18:53.879Z,20.80
2022-10-28T11:21:37.158Z,20.90
2022-10-28T11:24:13.484Z,21.00
2022-10-28T11:26:46.172Z,21.00
2022-10-28T11:29:15.159Z,21.00
2022-10-28T11:32:01.233Z,21.00
2022-10-28T11:34:38.765Z,20.90
2022-10-28T11:37:14.182Z,20.80
2022-10-28T11:39:47.984Z,20.90
2022-10-28T11:42:21.306Z,20.80
2022-10-28T11:44:54.413Z,20.80
2022-10-28T11:47:29.399Z,20.80
2022-10-28T11:50:05.757Z,20.90
2022-10-28T11:52:45.133Z,20.90
2022-10-28T11:55:19.171Z,20.70
2022-10-28T11:57:53.381Z,20.70
2022-10-28T12:00:26.520Z,20.80
2022-10-28T12:03:02.393Z,20.80
2022-10-28T12:05:37.388Z,20.70
2022-10-28T12:08:14.149Z,20.80
2022-10-28T12:10:49.258Z,20.90
2022-10-28T12:13:21.105Z,20.90
2022-10-28T12:15:53.835Z,20.90
2022-10-28T12:18:24.274Z,20.80
2022-10-28T12:20:59.016Z,20.90
2022-10-28T12:23:28.600Z,20.80
2022-10-28T12:25:58.424Z,20.80
2022-10-28T12:28:29.137Z,20.80
2022-10-28T12:30:58.183Z,20.80
2022-10-28T12:33:28.147Z,20.80
2022-10-28T12:35:59.830Z,20.80
2022-10-28T12:38:31.243Z,20.70
2022-10-28T12:41:03.768Z,20.70
2022-10-28T12:43:35.210Z,20.80
2022-10-28T12:46:03.632Z,20.80
2022-10-28T12:48:34.422Z,20.90
2022-10-28T12:51:06.252Z,21.00
2022-10-28T12:53:36.627Z,21.10
2022-10-28T12:56:10.706Z,20.80
2022-10-28T12:58:42.843Z,20.90
2022-10-28T13:01:15.471Z,20.90
2022-10-28T13:03:44.001Z,21.00
2022-10-28T13:06:22.276Z,20.90
2022-10-28T13:09:04.265Z,20.90
2022-10-28T13:11:59.418Z,20.90
2022-10-28T13:14:35.026Z,20.90
2022-10-28T13:17:13.118Z,20.70
2022-10-28T13:19:48.859Z,20.60
2022-10-28T13:22:40.590Z,20.50
2022-10-28T13:25:21.611Z,20.70
2022-10-28T13:27:56.315Z,20.70
2022-10-28T13:30:25.495Z,20.80
2022-10-28T13:33:01.824Z,20.70
2022-10-28T13:35:31.091Z,20.60
2022-10-28T13:38:00.137Z,20.60
2022-10-28T13:40:46.881Z,20.70
2022-10-28T13:43:42.509Z,20.80
2022-10-28T13:46:10.901Z,20.50
2022-10-28T13:48:48.784Z,20.40
2022-10-28T13:51:33.308Z,20.40
2022-10-28T13:54:01.765Z,20.50
2022-10-28T13:56:39.228Z,20.50
2022-10-28T13:59:18.492Z,20.60
2022-10-28T14:02:01.433Z,20.50
2022-10-28T14:04:32.252Z,20.50
2022-10-28T14:07:05.496Z,20.50
2022-10-28T14:09:35.205Z,20.50
2022-10-28T14:12:14.562Z,20.50
2022-10-28T14:14:51.934Z,20.50
2022-10-28T14:17:21.741Z,20.50
2022-10-28T14:19:50.731Z,20.50
2022-10-28T14:22:28.279Z,20.50
2022-10-28T14:24:56.701Z,20.60
2022-10-28T14:27:29.586Z,20.60
2022-10-28T14:30:16.248Z,20.40
2022-10-28T14:32:45.894Z,20.40
2022-10-28T14:35:22.059Z,20.40
2022-10-28T14:38:08.958Z,20.30
2022-10-28T14:40:41.640Z,20.20
2022-10-28T14:43:33.779Z,20.10
2022-10-28T14:46:10.216Z,20.10
2022-10-28T14:48:44.733Z,20.10
2022-10-28T14:51:15.012Z,20.10
2022-10-28T14:53:44.440Z,20.10
2022-10-28T14:56:17.573Z,20.10
2022-10-28T14:58:46.091Z,20.10
2022-10-28T15:01:24.318Z,20.00
2022-10-28T15:03:54.108Z,20.10
2022-10-28T15:06:29.991Z,20.10
2022-10-28T15:09:03.501Z,20.00
2022-10-28T15:11:32.013Z,20.00
2022-10-28T15:14:13.282Z,20.00
2022-10-28T15:16:49.331Z,19.90
2022-10-28T15:19:19.543Z,19.90
2022-10-28T15:22:01.024Z,19.90
2022-10-28T15:24:29.560Z,19.90
2022-10-28T15:26:58.355Z,19.80
2022-10-28T15:29:26.775Z,19.80
2022-10-28T15:32:06.084Z,19.80
2022-10-28T15:34:34.467Z,19.90
2022-10-28T15:37:03.198Z,19.90
2022-10-28T15:39:31.880Z,19.90
2022-10-28T15:42:01.296Z,19.80
2022-10-28T15:44:32.805Z,19.80
2022-10-28T15:47:02.403Z,19.80
2022-10-28T15:49:34.473Z,19.80
2022-10-28T15:52:17.720Z,19.80
2022-10-28T15:54:54.818Z,19.70
2022-10-28T15:57:23.748Z,19.70
2022-10-28T16:00:18.765Z,19.70
2022-10-28T16:02:53.340Z,19.80
2022-10-28T16:05:45.554Z,19.70
2022-10-28T16:08:18.538Z,19.70
2022-10-28T16:10:47.638Z,19.70
2022-10-28T16:13:19.049Z,19.60
2022-10-28T16:15:50.403Z,19.60
2022-10-28T16:18:18.859Z,19.70
2022-10-28T16:20:48.768Z,19.70
2022-10-28T16:23:18.628Z,19.70
2022-10-28T16:25:46.989Z,19.60
2022-10-28T16:28:19.811Z,19.60
2022-10-28T16:30:48.260Z,19.70
2022-10-28T16:33:16.672Z,19.70
2022-10-28T16:35:45.099Z,19.70
2022-10-28T16:38:14.821Z,19.80
2022-10-28T16:40:51.342Z,19.80
2022-10-28T16:43:21.418Z,19.70
2022-10-28T16:45:50.273Z,19.80
2022-10-28T16:48:19.453Z,19.80
2022-10-28T16:50:50.056Z,19.70
2022-10-28T16:53:20.263Z,19.80
2022-10-28T16:55:48.786Z,19.80
2022-10-28T16:58:18.788Z,19.70
2022-10-28T17:00:49.147Z,19.70
2022-10-28T17:03:17.540Z,19.70
2022-10-28T17:05:45.906Z,19.70
2022-10-28T17:08:14.685Z,19.60
2022-10-28T17:10:44.555Z,19.70
2022-10-28T17:13:13.843Z,19.70
2022-10-28T17:15:42.750Z,19.60
2022-10-28T17:18:12.130Z,19.70
2022-10-28T17:20:40.516Z,19.70
2022-10-28T17:23:09.084Z,19.70
2022-10-28T17:25:37.475Z,19.70
2022-10-28T17:28:07.431Z,19.70
2022-10-28T17:30:35.892Z,19.70
2022-10-28T17:33:04.281Z,19.80
2022-10-28T17:35:32.647Z,19.80
2022-10-28T17:38:01.035Z,19.70
2022-10-28T17:40:32.157Z,19.80
2022-10-28T17:43:00.719Z,19.80
2022-10-28T17:45:30.495Z,19.80
2022-10-28T17:48:00.374Z,19.80
2022-10-28T17:50:28.777Z,19.80
2022-10-28T17:52:57.708Z,19.80
2022-10-28T17:55:26.401Z,19.80
2022-10-28T17:57:55.039Z,19.70
2022-10-28T18:00:23.738Z,19.80
2022-10-28T18:02:55.836Z,19.80
2022-10-28T18:05:24.288Z,19.70
2022-10-28T18:07:55.315Z,19.80
2022-10-28T18:10:23.927Z,19.80
2022-10-28T18:12:52.787Z,20.00
2022-10-28T18:15:21.364Z,19.90
2022-10-28T18:17:50.264Z,19.80
2022-10-28T18:20:20.040Z,19.70
2022-10-28T18:22:48.425Z,19.70
2022-10-28T18:25:16.896Z,19.70
2022-10-28T18:27:45.321Z,19.60
2022-10-28T18:30:13.869Z,19.60
2022-10-28T18:32:42.272Z,19.60
2022-10-28T18:35:10.731Z,19.60
2022-10-28T18:37:40.540Z,19.60
2022-10-28T18:40:09.484Z,19.60
2022-10-28T18:42:37.893Z,19.60
2022-10-28T18:45:06.618Z,19.60
2022-10-28T18:47:35.928Z,19.60
2022-10-28T18:50:05.476Z,19.60
2022-10-28T18:52:33.909Z,19.60
2022-10-28T18:55:03.718Z,19.60
2022-10-28T18:57:32.139Z,19.50
2022-10-28T19:02:48.979Z,19.50
2022-10-28T19:05:17.487Z,19.50
2022-10-28T19:07:46.225Z,19.40
2022-10-28T19:10:16.088Z,19.40
2022-10-28T19:12:45.944Z,19.40
2022-10-28T19:15:17.662Z,19.40
2022-10-28T19:17:46.096Z,19.40
2022-10-28T19:20:14.467Z,19.40
2022-10-28T19:22:42.963Z,19.40
2022-10-28T19:25:11.363Z,19.40
2022-10-28T19:27:41.108Z,19.40
2022-10-28T19:30:13.352Z,19.40
2022-10-28T19:32:42.205Z,19.30
2022-10-28T19:35:10.784Z,19.30
2022-10-28T19:37:39.174Z,19.30
2022-10-28T19:40:08.144Z,19.30
2022-10-28T19:42:38.618Z,19.30
2022-10-28T19:45:09.477Z,19.20
2022-10-28T19:47:37.892Z,19.20
2022-10-28T19:50:06.760Z,19.20
2022-10-28T19:52:35.202Z,19.20
2022-10-28T19:55:03.593Z,19.20
2022-10-28T19:57:32.008Z,19.10
2022-10-28T20:00:00.391Z,19.10
2022-10-28T20:02:30.291Z,19.20
2022-10-28T20:04:58.780Z,19.10
2022-10-28T20:07:27.168Z,19.10
2022-10-28T20:09:55.827Z,19.10
2022-10-28T20:12:24.286Z,19.10
2022-10-28T20:14:52.976Z,19.10
2022-10-28T20:17:21.395Z,19.00
2022-10-28T20:19:51.391Z,19.00
2022-10-28T20:22:19.765Z,18.90
2022-10-28T20:24:48.157Z,18.90
2022-10-28T20:27:16.593Z,18.90
2022-10-28T20:29:45.042Z,18.90
2022-10-28T20:32:13.396Z,18.80
2022-10-28T20:34:41.795Z,18.80
2022-10-28T20:37:11.565Z,18.80
2022-10-28T20:39:39.900Z,18.70
2022-10-28T20:42:08.236Z,18.70
2022-10-28T20:44:36.651Z,18.70
2022-10-28T20:47:05.097Z,18.70
2022-10-28T20:49:33.918Z,18.70
2022-10-28T20:52:02.267Z,18.70
2022-10-28T20:54:32.026Z,18.70
2022-10-28T20:57:00.464Z,18.80
2022-10-28T20:59:28.869Z,18.80
2022-10-28T21:01:57.438Z,18.80
2022-10-28T21:04:25.907Z,18.80
2022-10-28T21:06:54.340Z,18.70
2022-10-28T21:09:23.352Z,18.60
2022-10-28T21:11:53.255Z,18.60
2022-10-28T21:14:22.685Z,18.50
2022-10-28T21:16:51.222Z,18.50
2022-10-28T21:19:19.676Z,18.50
2022-10-28T21:21:48.107Z,18.40
2022-10-28T21:24:16.639Z,18.50
2022-10-28T21:26:47.220Z,18.40
2022-10-28T21:29:19.572Z,18.50
2022-10-28T21:31:48.095Z,18.50
2022-10-28T21:34:16.666Z,18.50
2022-10-28T21:36:45.088Z,18.50
2022-10-28T21:39:13.618Z,18.50
2022-10-28T21:41:42.048Z,18.50
2022-10-28T21:44:11.091Z,18.40
2022-10-28T21:46:40.913Z,18.40
2022-10-28T21:49:09.353Z,18.40
2022-10-28T21:51:37.849Z,18.50
2022-10-28T21:54:06.350Z,18.50
2022-10-28T21:56:34.943Z,18.60
2022-10-28T21:59:03.471Z,18.60
2022-10-28T22:01:32.992Z,18.60
2022-10-28T22:04:02.986Z,18.60
2022-10-28T22:06:31.453Z,18.70
2022-10-28T22:08:59.985Z,18.70
2022-10-28T22:11:28.444Z,18.70
2022-10-28T22:13:57.972Z,18.60
2022-10-28T22:16:27.022Z,18.60
2022-10-28T22:18:55.528Z,18.70
2022-10-28T22:21:26.455Z,18.70
2022-10-28T22:23:55.292Z,18.70
2022-10-28T22:26:24.436Z,18.70
2022-10-28T22:28:53.212Z,18.70
2022-10-28T22:31:23.042Z,18.70
2022-10-28T22:33:51.711Z,18.70
2022-10-28T22:36:21.321Z,18.70
2022-10-28T22:38:51.302Z,18.70
2022-10-28T22:41:20.437Z,18.70
2022-10-28T22:43:50.072Z,18.80
2022-10-28T22:46:18.919Z,18.80
2022-10-28T22:48:47.902Z,18.80
2022-10-28T22:51:16.412Z,18.70
2022-10-28T22:53:44.914Z,18.70
2022-10-28T22:56:15.672Z,18.70
2022-10-28T22:58:44.117Z,18.70
2022-10-28T23:01:13.644Z,18.70
2022-10-28T23:03:42.815Z,18.80
2022-10-28T23:06:11.915Z,18.80
2022-10-28T23:08:41.433Z,18.80
2022-10-28T23:11:10.593Z,18.70
2022-10-28T23:13:40.479Z,18.60
2022-10-28T23:16:10.475Z,18.60
2022-10-28T23:18:39.289Z,18.60
2022-10-28T23:21:08.993Z,18.50
2022-10-28T23:23:37.488Z,18.50
2022-10-28T23:26:06.050Z,18.50
2022-10-28T23:28:34.554Z,18.60
2022-10-28T23:31:05.446Z,18.60
2022-10-28T23:33:34.547Z,18.60
2022-10-28T23:36:04.148Z,18.60
2022-10-28T23:38:33.654Z,18.60
2022-10-28T23:41:02.897Z,18.60
2022-10-28T23:43:31.968Z,18.60
2022-10-28T23:46:01.107Z,18.60
2022-10-28T23:48:31.221Z,18.60
2022-10-28T23:50:59.849Z,18.60
2022-10-28T23:56:01.773Z,18.60
2022-10-28T23:58:30.350Z,18.50
